Quinby, Virginia
Current Conditions -  °F | °C
As of 10:15 PM on Monday 20 Oct 2014 (Local Time) from KMFV Reporting Station
Clear Clear  
Wind Chill: 54°   Ceiling: Unl
Heat Index: 54°   Visibility: 10mi
Dew Point: 45°   Wind: 6mph
Humidity: 72%   Direction: 190°S
Pressure: 29.99"   Gusts: NA
Location:  37.55°N, 75.73°W
Report Text: KMFV 210215Z AUTO 19005KT 10SM CLR 12/07 A2999 RMK AO2
Loading
Personal Weather Stations






























Interactive Weather Map New forecast layout! Learn more

10-Day Weather Forecast

Advertisements
Track Severe Weather on mobile